Nearby METAR Reports

 

KRNT - Renton, Washington, USA
Distance from station: NNW 3mi, 4km
Updated: Sun, 02-Oct-2022 1:53pm PDT
Clear
Clear
 Wind from N
Wind: N 6 mph , 9 km/h
Temperature: 75°F , 24°C
Dew Point: 55°F , 13°C
Humidity: 50%
Barometer: 29.96 inHg , 1014.6 hPa
Clouds: Clear
Visibility: 7 miles , 11 km
2022/10/02 20:53 KRNT 022053Z 35005KT 7SM CLR 24/13 A2996 RMK AO2 SLP151 T02390133 58009 $
KSEA - Seattle/Metro, Washington, USA
Distance from station: W 5mi, 9km
Updated: Sun, 02-Oct-2022 1:53pm PDT
Clear
Clear
 Wind from WNW
Wind: WNW 6 mph , 9 km/h
Temperature: 77°F , 25°C
Dew Point: 54°F , 12°C
Humidity: 44%
Barometer: 29.98 inHg , 1015.2 hPa
Clouds: Clear
Visibility: 8 miles , 13 km
2022/10/02 20:53 KSEA 022053Z 30005KT 8SM CLR 25/12 A2998 RMK AO2 SLP157 T02500117 58007
KBFI - Seattle/Boeing, Washington, USA
Distance from station: NW 8mi, 13km
Updated: Sun, 02-Oct-2022 1:53pm PDT
Clear
Clear
 Wind from varies
Wind: varies 7 mph , 11 km/h
Temperature: 73°F , 23°C
Dew Point: 54°F , 12°C
Humidity: 50%
Barometer: 29.97 inHg , 1014.9 hPa
Clouds: Clear
Visibility: 10 miles , 16 km
2022/10/02 20:53 KBFI 022053Z VRB06KT 10SM CLR 23/12 A2997 RMK AO2 SLP148 T02330122 58008
 
KTIW - Tacoma, Washington, USA
Distance from station: SW 22mi, 36km
Updated: Sun, 02-Oct-2022 1:53pm PDT
Clear
Clear
 Wind from N
Wind: N 9 mph , 15 km/h
Temperature: 75°F , 24°C
Dew Point: 54°F , 12°C
Humidity: 47%
Barometer: 29.98 inHg , 1015.2 hPa
Clouds: Clear
Visibility: 10 miles , 16 km
2022/10/02 20:53 KTIW 022053Z 01008KT 10SM CLR 24/12 A2998 RMK AO2 SLP148 T02440117 58008
KPLU - Puyallup/Thun, Washington, USA
Distance from station: S 25mi, 41km
Updated: Sun, 02-Oct-2022 2:15pm PDT
Clear
Clear
 Wind from calm
Wind: Calm
Temperature: 81°F , 27°C
Dew Point: 52°F , 11°C
Humidity: 37%
Barometer: 29.98 inHg , 1015.2 hPa
Clouds: Clear
Visibility: 10 miles , 16 km
2022/10/02 21:15 KPLU 022115Z AUTO 00000KT 10SM CLR 27/11 A2998 RMK AO2
KPWT - Bremerton Ntnl, Washington, USA
Distance from station: W 26mi, 41km
Updated: Sun, 02-Oct-2022 12:56pm PDT
NOT Current
Clear
Clear
 Wind from ENE
Wind: ENE 10 mph , 17 km/h
Temperature: 75°F , 24°C
Dew Point: 55°F , 13°C
Humidity: 50%
Barometer: 29.99 inHg , 1015.6 hPa
Clouds: Clear
Visibility: 10 miles , 16 km
2022/10/02 19:56 KPWT 021956Z AUTO 06009KT 10SM CLR 24/13 A2999 RMK AO2 SLP158 T02440128
 
KTCM - Tacoma/Mc Chord, Washington, USA
Distance from station: SSW 27mi, 43km
Updated: Sun, 02-Oct-2022 1:55pm PDT
Clear
Clear
 Wind from NNE
Wind: NNE 8 mph , 13 km/h
Temperature: 77°F , 25°C
Dew Point: 52°F , 11°C
Humidity: 42%
Barometer: 29.97 inHg , 1014.9 hPa
Clouds: Clear
Visibility: 10 miles , 16 km
2022/10/02 20:55 KTCM 022055Z 02007KT 10SM CLR 25/11 A2997 RMK AO2A SLP152 T02520114 57008 $
KPAE - Everett, Washington, USA
Distance from station: N 32mi, 51km
Updated: Sun, 02-Oct-2022 1:53pm PDT
Clear
Clear
 Wind from N
Wind: N 7 mph , 11 km/h
Temperature: 73°F , 23°C
Dew Point: 52°F , 11°C
Humidity: 47%
Barometer: 30.00 inHg , 1015.9 hPa
Clouds: Clear
Visibility: 10 miles , 16 km
2022/10/02 20:53 KPAE 022053Z 35006KT 10SM CLR 23/11 A3000 RMK AO2 SLP158 T02280111 58003
KGRF - Fort Lewis/Gray, Washington, USA
Distance from station: SSW 32mi, 52km
Updated: Sun, 02-Oct-2022 1:56pm PDT
Clear
Clear
 Wind from WNW
Wind: WNW 5 mph , 7 km/h
Temperature: 77°F , 25°C
Dew Point: 50°F , 10°C
Humidity: 39%
Barometer: 29.94 inHg , 1013.9 hPa
Clouds: Clear
Visibility: 10 miles , 16 km
2022/10/02 20:56 KGRF 022056Z AUTO 29004KT 10SM CLR 25/10 A2994 RMK AO2 SLP142 T02530103 57009 $
 
KSMP - Stampede Pass, Washington, USA
Distance from station: ESE 42mi, 68km
Updated: Sun, 02-Oct-2022 1:56pm PDT
Clear
Clear
 Wind from calm
Wind: Calm
Temperature: 75°F , 24°C
Dew Point: 43°F , 6°C
Humidity: 31%
Barometer: 30.12 inHg , 1020 hPa
Clouds: Clear
Visibility: 10 miles , 16 km
2022/10/02 20:56 KSMP 022056Z AUTO 00000KT 10SM CLR 24/06 A3012 RMK AO2 SLP169 T02390056 58004 $
KSHN - Shelton, Washington, USA
Distance from station: WSW 46mi, 75km
Updated: Sun, 02-Oct-2022 1:53pm PDT
Clear
Clear
 Wind from NNW
Wind: NNW 3 mph , 6 km/h
Temperature: 81°F , 27°C
Dew Point: 54°F , 12°C
Humidity: 39%
Barometer: 29.94 inHg , 1013.9 hPa
Clouds: Clear
Visibility: 10 miles , 16 km
2022/10/02 20:53 KSHN 022053Z AUTO 34003KT 10SM CLR 27/12 A2994 RMK AO2 SLP139 T02720117 58012
KOLM - Olympia, Washington, USA
Distance from station: SW 47mi, 76km
Updated: Sun, 02-Oct-2022 1:54pm PDT
Clear
Clear
 Wind from NNE
Wind: NNE 7 mph , 11 km/h
Temperature: 77°F , 25°C
Dew Point: 54°F , 12°C
Humidity: 44%
Barometer: 29.97 inHg , 1014.9 hPa
Clouds: Clear
Visibility: 10 miles , 16 km
2022/10/02 20:54 KOLM 022054Z AUTO 02006KT 10SM CLR 25/12 A2997 RMK AO2 SLP148 T02500122 56008
 
KAWO - Arlington Muni, Washington, USA
Distance from station: N 49mi, 78km
Updated: Sun, 02-Oct-2022 1:56pm PDT
Clear
Clear
 Wind from W
Wind: W 7 mph , 11 km/h
Temperature: 77°F , 25°C
Dew Point: 55°F , 13°C
Humidity: 47%
Barometer: 29.98 inHg , 1015.2 hPa
Clouds: Clear
Visibility: 10 miles , 16 km
2022/10/02 20:56 KAWO 022056Z AUTO 28006KT 10SM CLR 25/13 A2998 RMK AO2 SLP155 T02500133 57009